Faruk Kaan — V7IX2 — position and weather

sailwx.info

Track history (hours):
 
Tides and Currents Weather Stations Pressure Air Temp Water Temp Dewpoint Dewpoint Depression Visibility Wind Speed Wind Dir Waves Ship Positions

Faruk Kaan

Last reported at 2018-Feb-17 15:34 UTC. Time now 2018-Feb-21 01:55 UTC.
Position N 40°58' E 002°01'.

Length 126 m; draft 6 m.

Type: Ship. MMSI: 538002449.

Date/timePositionNaut miles runAvg speedWind from/ knotsBaromVisibWave heightAir tempDewpointWater temp
2018-Feb-17 15:34N 40°58' E 002°01'111.3
2018-Feb-17 15:30N 40°59' E 002°01'611.0
2018-Feb-17 15:00N 41°04' E 002°04'510.6
2018-Feb-17 14:30N 41°09' E 002°07'510.3
2018-Feb-17 14:00N 41°14' E 002°09'510.1
2018-Feb-17 13:30N 41°19' E 002°10'2 4.5
2018-Feb-17 13:01N 41°21' E 002°10'0 0.0
2018-Feb-17 12:28N 41°21' E 002°10'0 0.0
2018-Feb-17 12:01N 41°21' E 002°10'0 0.0
2018-Feb-17 11:28N 41°21' E 002°10'0 0.0
2018-Feb-17 11:00N 41°21' E 002°10'0 0.0
2018-Feb-17 10:31N 41°21' E 002°10'0 0.0
2018-Feb-17 10:00N 41°21' E 002°10'0 0.0
2018-Feb-17 09:31N 41°21' E 002°10'0 0.0
2018-Feb-17 09:01N 41°21' E 002°10'0 0.0
2018-Feb-17 08:31N 41°21' E 002°10'0 0.0
2018-Feb-17 03:28N 41°21' E 002°10'0 0.0
2018-Feb-17 03:01N 41°21' E 002°10'0 0.0
2018-Feb-17 02:30N 41°21' E 002°10'0 0.0
2018-Feb-17 02:01N 41°21' E 002°10'0 0.0
2018-Feb-17 01:31N 41°21' E 002°10'0 0.0
2018-Feb-17 01:01N 41°21' E 002°10'0 0.0
2018-Feb-17 00:30N 41°21' E 002°10'0 0.0
2018-Feb-17 00:00N 41°21' E 002°10'0 0.4
2018-Feb-16 23:30N 41°21' E 002°10'3 6.4
2018-Feb-16 22:59N 41°17' E 002°11'2 4.3
2018-Feb-16 22:31N 41°15' E 002°10'510.5
2018-Feb-16 22:00N 41°10' E 002°08'510.7
2018-Feb-16 21:31N 41°06' E 002°05'510.1
2018-Feb-16 21:00N 41°01' E 002°03'5 9.7
2018-Feb-16 20:30N 40°56' E 002°01'10 9.6
2018-Feb-16 19:25N 40°47' E 001°56'611.1
2018-Feb-16 18:52N 40°41' E 001°52'14611.1
2018-Feb-16 05:48N 38°25' E 000°45'410.8
2018-Feb-16 05:28N 38°22' E 000°43'510.9
2018-Feb-16 05:00N 38°17' E 000°40'610.8
2018-Feb-16 04:29N 38°12' E 000°38'510.8
2018-Feb-16 04:00N 38°07' E 000°35'1610.7
2018-Feb-16 02:32N 37°52' E 000°28'1310.5
2018-Feb-16 01:17N 37°40' E 000°23'310.4
2018-Feb-16 01:00N 37°37' E 000°21'510.2
2018-Feb-16 00:30N 37°33' E 000°19'510.1
2018-Feb-16 00:00N 37°28' E 000°17'510.0
2018-Feb-15 23:30N 37°23' E 000°14'510.1
2018-Feb-15 23:00N 37°18' E 000°12'510.3
2018-Feb-15 22:30N 37°14' E 000°10'910.4
2018-Feb-15 21:37N 37°05' E 000°05'110.6
2018-Feb-15 21:30N 37°04' E 000°05'510.6
2018-Feb-15 21:00N 36°59' E 000°03'510.7
2018-Feb-15 20:30N 36°54' E 000°02'710.3
2018-Feb-15 19:51N 36°48' W 000°03'  
2018-Feb-11 21:33N 37°04' W 000°01'2 9.5
2018-Feb-11 21:21N 37°06' E 000°00'4 9.3
2018-Feb-11 20:58N 37°09' E 000°02'26 8.8
2018-Feb-11 18:00N 37°33' E 000°14'215 9.9
2018-Feb-10 20:15N 40°52' E 001°57'510.4
2018-Feb-10 19:43N 40°57' E 002°00'310.4
2018-Feb-10 19:26N 40°60' E 002°02'410.6
2018-Feb-10 19:00N 41°04' E 002°04'510.6
2018-Feb-10 18:30N 41°09' E 002°06'510.5
2018-Feb-10 18:00N 41°14' E 002°09'5 9.2
2018-Feb-10 17:30N 41°18' E 002°10'3 4.9
2018-Feb-10 16:59N 41°21' E 002°10'0 0.0
2018-Feb-10 16:29N 41°21' E 002°10'0 0.0
2018-Feb-10 15:59N 41°21' E 002°10'0 0.0
2018-Feb-10 15:29N 41°21' E 002°10'0 0.0
2018-Feb-10 14:59N 41°21' E 002°10'0 0.0
2018-Feb-10 14:29N 41°21' E 002°10'0 0.0
2018-Feb-10 13:59N 41°21' E 002°10'0 0.0
2018-Feb-10 13:29N 41°21' E 002°10'0 0.0
2018-Feb-10 12:59N 41°21' E 002°10'0 0.0
2018-Feb-10 12:29N 41°21' E 002°10'0 0.0
2018-Feb-10 11:59N 41°21' E 002°10'0 0.0
2018-Feb-10 11:26N 41°21' E 002°10'0 0.0
2018-Feb-10 10:59N 41°21' E 002°10'0 0.0
2018-Feb-10 10:29N 41°21' E 002°10'0 0.0
2018-Feb-10 09:59N 41°21' E 002°10'0 0.0
2018-Feb-10 09:29N 41°21' E 002°10'0 0.0
2018-Feb-10 08:59N 41°21' E 002°10'0 0.0
2018-Feb-10 08:29N 41°21' E 002°10'0 0.0
2018-Feb-10 07:59N 41°21' E 002°10'0 0.0
2018-Feb-10 07:29N 41°21' E 002°10'0 0.0
2018-Feb-10 06:59N 41°21' E 002°10'0 0.0
2018-Feb-10 06:29N 41°21' E 002°10'0 0.0
2018-Feb-10 05:59N 41°21' E 002°10'0 0.0
2018-Feb-10 05:29N 41°21' E 002°10'0 0.0
2018-Feb-10 04:56N 41°21' E 002°10'0 0.0
2018-Feb-10 04:29N 41°21' E 002°10'0 0.0
2018-Feb-10 03:59N 41°21' E 002°10'0 0.0
2018-Feb-10 03:29N 41°21' E 002°10'0 0.0
2018-Feb-10 02:59N 41°21' E 002°10'0 0.0
2018-Feb-10 02:29N 41°21' E 002°10'0 0.0
2018-Feb-10 01:59N 41°21' E 002°10'0 0.0
2018-Feb-10 01:29N 41°21' E 002°10'0 0.0
2018-Feb-10 00:59N 41°21' E 002°10'0 0.0
2018-Feb-10 00:29N 41°21' E 002°10'0 0.0
2018-Feb-09 23:59N 41°21' E 002°10'0 0.0
2018-Feb-09 23:29N 41°21' E 002°10'1 2.0
2018-Feb-09 23:00N 41°20' E 002°10'2 8.0
2018-Feb-09 22:46N 41°18' E 002°11'7 8.8
2018-Feb-09 22:00N 41°12' E 002°08'  
Track history (hours):
 
Tides and Currents Weather Stations Pressure Air Temp Water Temp Dewpoint Dewpoint Depression Visibility Wind Speed Wind Dir Waves Ship Positions

Faruk Kaan

Last reported at 2018-Feb-17 15:34 UTC. Time now 2018-Feb-21 01:55 UTC.
Position N 40°58' E 002°01'.

Length 126 m; draft 6 m.

Type: Ship. MMSI: 538002449.

Date/timePositionNaut miles runAvg speedWind from/ knotsBaromVisibWave heightAir tempDewpointWater temp
2018-Feb-17 15:34N 40°58' E 002°01'111.3
2018-Feb-17 15:30N 40°59' E 002°01'611.0
2018-Feb-17 15:00N 41°04' E 002°04'510.6
2018-Feb-17 14:30N 41°09' E 002°07'510.3
2018-Feb-17 14:00N 41°14' E 002°09'510.1
2018-Feb-17 13:30N 41°19' E 002°10'2 4.5
2018-Feb-17 13:01N 41°21' E 002°10'0 0.0
2018-Feb-17 12:28N 41°21' E 002°10'0 0.0
2018-Feb-17 12:01N 41°21' E 002°10'0 0.0
2018-Feb-17 11:28N 41°21' E 002°10'0 0.0
2018-Feb-17 11:00N 41°21' E 002°10'0 0.0
2018-Feb-17 10:31N 41°21' E 002°10'0 0.0
2018-Feb-17 10:00N 41°21' E 002°10'0 0.0
2018-Feb-17 09:31N 41°21' E 002°10'0 0.0
2018-Feb-17 09:01N 41°21' E 002°10'0 0.0
2018-Feb-17 08:31N 41°21' E 002°10'0 0.0
2018-Feb-17 03:28N 41°21' E 002°10'0 0.0
2018-Feb-17 03:01N 41°21' E 002°10'0 0.0
2018-Feb-17 02:30N 41°21' E 002°10'0 0.0
2018-Feb-17 02:01N 41°21' E 002°10'0 0.0
2018-Feb-17 01:31N 41°21' E 002°10'0 0.0
2018-Feb-17 01:01N 41°21' E 002°10'0 0.0
2018-Feb-17 00:30N 41°21' E 002°10'0 0.0
2018-Feb-17 00:00N 41°21' E 002°10'0 0.4
2018-Feb-16 23:30N 41°21' E 002°10'3 6.4
2018-Feb-16 22:59N 41°17' E 002°11'2 4.3
2018-Feb-16 22:31N 41°15' E 002°10'510.5
2018-Feb-16 22:00N 41°10' E 002°08'510.7
2018-Feb-16 21:31N 41°06' E 002°05'510.1
2018-Feb-16 21:00N 41°01' E 002°03'5 9.7
2018-Feb-16 20:30N 40°56' E 002°01'10 9.6
2018-Feb-16 19:25N 40°47' E 001°56'611.1
2018-Feb-16 18:52N 40°41' E 001°52'14611.1
2018-Feb-16 05:48N 38°25' E 000°45'410.8
2018-Feb-16 05:28N 38°22' E 000°43'510.9
2018-Feb-16 05:00N 38°17' E 000°40'610.8
2018-Feb-16 04:29N 38°12' E 000°38'510.8
2018-Feb-16 04:00N 38°07' E 000°35'1610.7
2018-Feb-16 02:32N 37°52' E 000°28'1310.5
2018-Feb-16 01:17N 37°40' E 000°23'310.4
2018-Feb-16 01:00N 37°37' E 000°21'510.2
2018-Feb-16 00:30N 37°33' E 000°19'510.1
2018-Feb-16 00:00N 37°28' E 000°17'510.0
2018-Feb-15 23:30N 37°23' E 000°14'510.1
2018-Feb-15 23:00N 37°18' E 000°12'510.3
2018-Feb-15 22:30N 37°14' E 000°10'910.4
2018-Feb-15 21:37N 37°05' E 000°05'110.6
2018-Feb-15 21:30N 37°04' E 000°05'510.6
2018-Feb-15 21:00N 36°59' E 000°03'510.7
2018-Feb-15 20:30N 36°54' E 000°02'710.3
2018-Feb-15 19:51N 36°48' W 000°03'  
2018-Feb-11 21:33N 37°04' W 000°01'2 9.5
2018-Feb-11 21:21N 37°06' E 000°00'4 9.3
2018-Feb-11 20:58N 37°09' E 000°02'26 8.8
2018-Feb-11 18:00N 37°33' E 000°14'215 9.9
2018-Feb-10 20:15N 40°52' E 001°57'510.4
2018-Feb-10 19:43N 40°57' E 002°00'310.4
2018-Feb-10 19:26N 40°60' E 002°02'410.6
2018-Feb-10 19:00N 41°04' E 002°04'510.6
2018-Feb-10 18:30N 41°09' E 002°06'510.5
2018-Feb-10 18:00N 41°14' E 002°09'5 9.2
2018-Feb-10 17:30N 41°18' E 002°10'3 4.9
2018-Feb-10 16:59N 41°21' E 002°10'0 0.0
2018-Feb-10 16:29N 41°21' E 002°10'0 0.0
2018-Feb-10 15:59N 41°21' E 002°10'0 0.0
2018-Feb-10 15:29N 41°21' E 002°10'0 0.0
2018-Feb-10 14:59N 41°21' E 002°10'0 0.0
2018-Feb-10 14:29N 41°21' E 002°10'0 0.0
2018-Feb-10 13:59N 41°21' E 002°10'0 0.0
2018-Feb-10 13:29N 41°21' E 002°10'0 0.0
2018-Feb-10 12:59N 41°21' E 002°10'0 0.0
2018-Feb-10 12:29N 41°21' E 002°10'0 0.0
2018-Feb-10 11:59N 41°21' E 002°10'0 0.0
2018-Feb-10 11:26N 41°21' E 002°10'0 0.0
2018-Feb-10 10:59N 41°21' E 002°10'0 0.0
2018-Feb-10 10:29N 41°21' E 002°10'0 0.0
2018-Feb-10 09:59N 41°21' E 002°10'0 0.0
2018-Feb-10 09:29N 41°21' E 002°10'0 0.0
2018-Feb-10 08:59N 41°21' E 002°10'0 0.0
2018-Feb-10 08:29N 41°21' E 002°10'0 0.0
2018-Feb-10 07:59N 41°21' E 002°10'0 0.0
2018-Feb-10 07:29N 41°21' E 002°10'0 0.0
2018-Feb-10 06:59N 41°21' E 002°10'0 0.0
2018-Feb-10 06:29N 41°21' E 002°10'0 0.0
2018-Feb-10 05:59N 41°21' E 002°10'0 0.0
2018-Feb-10 05:29N 41°21' E 002°10'0 0.0
2018-Feb-10 04:56N 41°21' E 002°10'0 0.0
2018-Feb-10 04:29N 41°21' E 002°10'0 0.0
2018-Feb-10 03:59N 41°21' E 002°10'0 0.0
2018-Feb-10 03:29N 41°21' E 002°10'0 0.0
2018-Feb-10 02:59N 41°21' E 002°10'0 0.0
2018-Feb-10 02:29N 41°21' E 002°10'0 0.0
2018-Feb-10 01:59N 41°21' E 002°10'0 0.0
2018-Feb-10 01:29N 41°21' E 002°10'0 0.0
2018-Feb-10 00:59N 41°21' E 002°10'0 0.0
2018-Feb-10 00:29N 41°21' E 002°10'0 0.0
2018-Feb-09 23:59N 41°21' E 002°10'0 0.0
2018-Feb-09 23:29N 41°21' E 002°10'1 2.0
2018-Feb-09 23:00N 41°20' E 002°10'2 8.0
2018-Feb-09 22:46N 41°18' E 002°11'7 8.8
2018-Feb-09 22:00N 41°12' E 002°08'  

Dump ship's entire track history